createdAt,value
2019-03-09T00:00:30.788Z,6.34
2019-03-09T00:01:30.716Z,6.34
2019-03-09T00:02:30.678Z,6.36
2019-03-09T00:03:30.676Z,6.34
2019-03-09T00:04:30.621Z,6.32
2019-03-09T00:05:30.679Z,6.28
2019-03-09T00:06:30.653Z,6.31
2019-03-09T00:07:30.593Z,6.26
2019-03-09T00:08:30.634Z,6.29
2019-03-09T00:09:31.364Z,6.26
2019-03-09T00:10:30.578Z,6.26
2019-03-09T00:11:30.636Z,6.26
2019-03-09T00:12:30.597Z,6.26
2019-03-09T00:13:31.358Z,6.26
2019-03-09T00:14:30.589Z,6.28
2019-03-09T00:15:31.359Z,6.26
2019-03-09T00:16:30.510Z,6.25
2019-03-09T00:17:30.462Z,6.20
2019-03-09T00:18:30.506Z,6.28
2019-03-09T00:19:30.498Z,6.25
2019-03-09T00:20:30.524Z,6.25
2019-03-09T00:21:31.364Z,6.25
2019-03-09T00:22:30.430Z,6.28
2019-03-09T00:23:30.473Z,6.28
2019-03-09T00:24:30.474Z,6.22
2019-03-09T00:25:30.495Z,6.22
2019-03-09T00:26:30.442Z,6.22
2019-03-09T00:27:30.446Z,6.10
2019-03-09T00:28:30.513Z,6.22
2019-03-09T00:29:30.386Z,6.19
2019-03-09T00:30:30.475Z,6.25
2019-03-09T00:31:30.397Z,6.25
2019-03-09T00:32:30.342Z,6.17
2019-03-09T00:33:30.347Z,6.26
2019-03-09T00:34:30.341Z,6.22
2019-03-09T00:35:31.863Z,6.22
2019-03-09T00:36:30.376Z,6.25
2019-03-09T00:37:30.271Z,6.22
2019-03-09T00:38:30.315Z,6.20
2019-03-09T00:39:30.283Z,6.20
2019-03-09T00:40:30.223Z,6.26
2019-03-09T00:41:30.574Z,6.29
2019-03-09T00:42:30.359Z,6.19
2019-03-09T00:43:30.256Z,6.19
2019-03-09T00:44:30.212Z,6.29
2019-03-09T00:45:30.867Z,6.20
2019-03-09T00:46:30.251Z,6.26
2019-03-09T00:47:30.202Z,6.28
2019-03-09T00:48:30.364Z,6.32
2019-03-09T00:49:30.219Z,6.28
2019-03-09T00:50:30.173Z,6.28
2019-03-09T00:51:30.192Z,6.25
2019-03-09T00:52:31.064Z,6.26
2019-03-09T00:53:31.366Z,6.26
2019-03-09T00:54:33.040Z,6.26
2019-03-09T00:55:31.376Z,6.22
2019-03-09T00:56:31.316Z,6.29
2019-03-09T00:57:30.106Z,6.26
2019-03-09T00:58:33.368Z,6.26
2019-03-09T00:59:30.163Z,6.25
2019-03-09T01:00:30.055Z,6.26
2019-03-09T01:01:31.073Z,6.39
2019-03-09T01:02:30.030Z,6.25
2019-03-09T01:03:30.107Z,6.31
2019-03-09T01:04:29.948Z,6.41
2019-03-09T01:05:29.962Z,6.35
2019-03-09T01:06:29.960Z,6.32
2019-03-09T01:07:30.044Z,6.32
2019-03-09T01:08:31.171Z,6.22
2019-03-09T01:09:30.003Z,6.34
2019-03-09T01:10:30.955Z,6.29
2019-03-09T01:11:31.368Z,6.26
2019-03-09T01:12:31.453Z,6.34
2019-03-09T01:13:31.273Z,6.26
2019-03-09T01:14:30.081Z,6.35
2019-03-09T01:15:29.865Z,6.35
2019-03-09T01:16:29.928Z,6.36
2019-03-09T01:17:30.139Z,6.35
2019-03-09T01:18:30.875Z,6.43
2019-03-09T01:19:32.418Z,6.43
2019-03-09T01:20:29.881Z,6.43
2019-03-09T01:21:29.824Z,6.47
2019-03-09T01:22:29.843Z,6.49
2019-03-09T01:23:29.811Z,6.50
2019-03-09T01:24:29.835Z,6.52
2019-03-09T01:25:29.823Z,6.39
2019-03-09T01:26:29.816Z,6.50
2019-03-09T01:27:31.178Z,6.49
2019-03-09T01:28:30.885Z,6.52
2019-03-09T01:29:29.759Z,6.54
2019-03-09T01:30:29.734Z,6.54
2019-03-09T01:31:29.751Z,6.53
2019-03-09T01:32:29.766Z,6.50
2019-03-09T01:33:29.723Z,6.53
2019-03-09T01:34:29.677Z,6.49
2019-03-09T01:35:30.069Z,6.36
2019-03-09T01:36:29.657Z,6.46
2019-03-09T01:37:29.694Z,6.43
2019-03-09T01:38:30.372Z,6.38
2019-03-09T01:39:29.626Z,6.38
2019-03-09T01:40:30.470Z,6.43
2019-03-09T01:41:29.624Z,6.34
2019-03-09T01:42:29.606Z,6.36
2019-03-09T01:43:29.654Z,6.31
2019-03-09T01:44:29.624Z,6.28
2019-03-09T01:45:29.760Z,6.34
2019-03-09T01:46:30.376Z,6.31
2019-03-09T01:47:29.618Z,6.26
2019-03-09T01:48:30.401Z,6.26
2019-03-09T01:49:29.570Z,6.26
2019-03-09T01:50:29.563Z,6.26
2019-03-09T01:51:30.376Z,6.25
2019-03-09T01:52:29.651Z,6.19
2019-03-09T01:53:36.458Z,6.29
2019-03-09T01:54:30.566Z,6.26
2019-03-09T01:55:29.477Z,6.25
2019-03-09T01:56:31.936Z,6.22
2019-03-09T01:57:29.479Z,6.20
2019-03-09T01:58:29.463Z,6.20
2019-03-09T01:59:29.437Z,6.25
2019-03-09T02:00:29.407Z,6.19
2019-03-09T02:01:29.436Z,6.20
2019-03-09T02:02:29.359Z,6.15
2019-03-09T02:03:29.345Z,6.16
2019-03-09T02:04:29.362Z,6.16
2019-03-09T02:05:29.389Z,6.16
2019-03-09T02:06:29.317Z,6.13
2019-03-09T02:07:29.365Z,6.13
2019-03-09T02:08:29.315Z,6.15
2019-03-09T02:09:29.333Z,6.10
2019-03-09T02:10:29.298Z,6.06
2019-03-09T02:11:29.267Z,6.15
2019-03-09T02:12:29.282Z,6.15
2019-03-09T02:13:29.280Z,6.06
2019-03-09T02:14:29.249Z,6.12
2019-03-09T02:15:29.252Z,6.16
2019-03-09T02:16:29.225Z,6.13
2019-03-09T02:17:29.241Z,6.17
2019-03-09T02:18:29.263Z,6.16
2019-03-09T02:19:29.201Z,6.13
2019-03-09T02:20:29.310Z,6.10
2019-03-09T02:21:29.189Z,6.16
2019-03-09T02:22:29.150Z,6.15
2019-03-09T02:23:29.149Z,6.17
2019-03-09T02:24:29.171Z,6.20
2019-03-09T02:25:29.148Z,6.26
2019-03-09T02:26:29.149Z,6.25
2019-03-09T02:27:29.113Z,6.15
2019-03-09T02:28:29.109Z,6.22
2019-03-09T02:29:29.097Z,6.22
2019-03-09T02:30:29.092Z,6.25
2019-03-09T02:31:29.065Z,6.25
2019-03-09T02:32:29.064Z,6.28
2019-03-09T02:33:29.049Z,6.25
2019-03-09T02:34:29.047Z,6.25
2019-03-09T02:35:29.069Z,6.25
2019-03-09T02:36:29.012Z,6.25
2019-03-09T02:37:29.008Z,6.26
2019-03-09T02:38:28.988Z,6.28
2019-03-09T02:39:29.001Z,6.32
2019-03-09T02:40:28.997Z,6.35
2019-03-09T02:41:29.006Z,6.34
2019-03-09T02:42:28.996Z,6.35
2019-03-09T02:43:28.942Z,6.32
2019-03-09T02:44:28.994Z,6.41
2019-03-09T02:45:28.950Z,6.38
2019-03-09T02:46:28.916Z,6.39
2019-03-09T02:47:28.988Z,6.52
2019-03-09T02:48:28.922Z,6.47
2019-03-09T02:49:28.893Z,6.49
2019-03-09T02:50:28.950Z,6.41
2019-03-09T02:51:28.898Z,6.35
2019-03-09T02:52:28.883Z,6.52
2019-03-09T02:53:28.838Z,6.54
2019-03-09T02:54:28.838Z,6.53
2019-03-09T02:55:28.812Z,6.57
2019-03-09T02:56:28.806Z,6.62
2019-03-09T02:57:28.845Z,6.56
2019-03-09T02:58:28.780Z,6.56
2019-03-09T02:59:28.777Z,6.54
2019-03-09T03:00:28.782Z,6.54
2019-03-09T03:01:28.817Z,6.56
2019-03-09T03:02:28.802Z,6.56
2019-03-09T03:03:28.761Z,6.53
2019-03-09T03:04:28.753Z,6.56
2019-03-09T03:05:28.710Z,6.62
2019-03-09T03:06:28.729Z,6.62
2019-03-09T03:07:28.752Z,6.65
2019-03-09T03:08:28.686Z,6.65
2019-03-09T03:09:28.679Z,6.68
2019-03-09T03:10:28.696Z,6.60
2019-03-09T03:11:28.647Z,6.59
2019-03-09T03:12:28.670Z,6.62
2019-03-09T03:13:28.670Z,6.70
2019-03-09T03:14:28.628Z,6.70
2019-03-09T03:15:28.644Z,6.67
2019-03-09T03:16:28.605Z,6.67
2019-03-09T03:17:28.594Z,6.67
2019-03-09T03:18:28.626Z,6.71
2019-03-09T03:19:28.561Z,6.71
2019-03-09T03:20:28.557Z,6.75
2019-03-09T03:21:28.551Z,6.74
2019-03-09T03:22:28.567Z,6.71
2019-03-09T03:23:28.536Z,6.75
2019-03-09T03:24:28.594Z,6.74
2019-03-09T03:25:28.591Z,6.75
2019-03-09T03:26:29.394Z,6.67
2019-03-09T03:27:28.533Z,6.68
2019-03-09T03:28:28.499Z,6.68
2019-03-09T03:29:28.487Z,6.68
2019-03-09T03:30:28.447Z,6.60
2019-03-09T03:31:28.452Z,6.65
2019-03-09T03:32:28.475Z,6.62
2019-03-09T03:33:28.497Z,6.62
2019-03-09T03:34:28.430Z,6.70
2019-03-09T03:35:28.435Z,6.65
2019-03-09T03:36:28.472Z,6.60
2019-03-09T03:37:28.389Z,6.74
2019-03-09T03:38:28.399Z,6.72
2019-03-09T03:39:28.372Z,6.75
2019-03-09T03:40:28.369Z,6.75
2019-03-09T03:41:28.357Z,6.74
2019-03-09T03:42:28.323Z,6.78
2019-03-09T03:43:28.360Z,6.75
2019-03-09T03:44:28.339Z,6.68
2019-03-09T03:45:28.376Z,6.77
2019-03-09T03:46:28.312Z,6.77
2019-03-09T03:47:28.313Z,6.75
2019-03-09T03:48:28.259Z,6.77
2019-03-09T03:49:28.258Z,6.77
2019-03-09T03:50:28.299Z,6.72
2019-03-09T03:51:28.240Z,6.75
2019-03-09T03:52:28.239Z,6.75
2019-03-09T03:53:29.053Z,6.80
2019-03-09T03:54:28.261Z,6.82
2019-03-09T03:55:28.234Z,6.78
2019-03-09T03:56:28.197Z,6.80
2019-03-09T03:57:28.182Z,6.86
2019-03-09T03:58:28.182Z,6.77
2019-03-09T03:59:28.208Z,6.77
2019-03-09T04:00:28.140Z,6.87
2019-03-09T04:01:28.189Z,6.83
2019-03-09T04:02:28.155Z,6.83
2019-03-09T04:03:28.123Z,6.92
2019-03-09T04:04:28.091Z,6.86
2019-03-09T04:05:28.120Z,6.86
2019-03-09T04:06:28.085Z,6.85
2019-03-09T04:07:28.061Z,6.89
2019-03-09T04:08:28.054Z,6.85
2019-03-09T04:09:28.070Z,6.89
2019-03-09T04:10:28.015Z,6.90
2019-03-09T04:11:28.082Z,6.85
2019-03-09T04:12:28.079Z,6.89
2019-03-09T04:13:28.003Z,6.87
2019-03-09T04:14:28.009Z,6.90
2019-03-09T04:15:27.998Z,6.86
2019-03-09T04:16:27.988Z,6.74
2019-03-09T04:17:27.968Z,6.87
2019-03-09T04:18:28.062Z,6.77
2019-03-09T04:19:28.011Z,6.77
2019-03-09T04:20:27.973Z,6.86
2019-03-09T04:21:27.926Z,6.80
2019-03-09T04:22:27.887Z,6.77
2019-03-09T04:23:28.057Z,6.82
2019-03-09T04:24:27.895Z,6.71
2019-03-09T04:25:28.462Z,6.80
2019-03-09T04:26:27.912Z,6.80
2019-03-09T04:27:27.859Z,6.77
2019-03-09T04:28:27.869Z,6.82
2019-03-09T04:29:28.107Z,6.80
2019-03-09T04:30:27.823Z,6.75
2019-03-09T04:31:27.829Z,6.75
2019-03-09T04:32:27.807Z,6.78
2019-03-09T04:33:27.810Z,6.77
2019-03-09T04:34:27.817Z,6.89
2019-03-09T04:35:27.771Z,6.77
2019-03-09T04:36:27.761Z,6.77
2019-03-09T04:37:27.758Z,6.77
2019-03-09T04:38:27.783Z,6.78
2019-03-09T04:39:27.779Z,6.85
2019-03-09T04:40:27.767Z,6.92
2019-03-09T04:41:27.707Z,6.83
2019-03-09T04:42:27.719Z,6.80
2019-03-09T04:43:27.704Z,6.77
2019-03-09T04:44:27.678Z,6.77
2019-03-09T04:45:27.710Z,6.74
2019-03-09T04:46:27.677Z,6.86
2019-03-09T04:47:37.072Z,6.77
2019-03-09T04:48:27.601Z,6.74
2019-03-09T04:49:27.755Z,6.87
2019-03-09T04:50:27.609Z,6.72
2019-03-09T04:51:27.612Z,6.78
2019-03-09T04:52:27.594Z,6.72
2019-03-09T04:53:27.561Z,6.77
2019-03-09T04:54:27.593Z,6.77
2019-03-09T04:55:27.575Z,6.82
2019-03-09T04:56:27.572Z,6.83
2019-03-09T04:57:27.590Z,6.80
2019-03-09T04:58:27.560Z,6.75
2019-03-09T04:59:27.529Z,6.77
2019-03-09T05:00:27.535Z,6.85
2019-03-09T05:01:27.515Z,6.85
2019-03-09T05:02:27.483Z,6.85
2019-03-09T05:03:27.523Z,6.86
2019-03-09T05:04:27.492Z,6.87
2019-03-09T05:05:27.496Z,6.83
2019-03-09T05:06:27.509Z,6.85
2019-03-09T05:07:27.420Z,6.86
2019-03-09T05:08:27.456Z,6.86
2019-03-09T05:09:27.462Z,6.86
2019-03-09T05:10:27.411Z,6.85
2019-03-09T05:11:27.374Z,6.87
2019-03-09T05:12:27.423Z,6.78
2019-03-09T05:13:27.404Z,6.78
2019-03-09T05:14:27.399Z,6.86
2019-03-09T05:15:27.361Z,6.87
2019-03-09T05:16:27.352Z,6.75
2019-03-09T05:17:27.939Z,6.70
2019-03-09T05:18:27.379Z,6.72
2019-03-09T05:19:27.286Z,6.78
2019-03-09T05:20:27.308Z,6.77
2019-03-09T05:21:27.274Z,6.72
2019-03-09T05:22:27.285Z,6.77
2019-03-09T05:23:27.273Z,6.86
2019-03-09T05:24:27.292Z,6.75
2019-03-09T05:25:27.218Z,6.78
2019-03-09T05:26:27.230Z,6.77
2019-03-09T05:27:27.242Z,6.74
2019-03-09T05:28:27.219Z,6.72
2019-03-09T05:29:27.199Z,6.72
2019-03-09T05:30:27.184Z,6.70
2019-03-09T05:31:27.177Z,6.68
2019-03-09T05:32:27.204Z,6.74
2019-03-09T05:33:27.161Z,6.80
2019-03-09T05:34:27.256Z,6.74
2019-03-09T05:35:27.234Z,6.77
2019-03-09T05:36:27.117Z,6.82
2019-03-09T05:37:27.163Z,6.85
2019-03-09T05:38:27.164Z,6.86
2019-03-09T05:39:28.179Z,6.85
2019-03-09T05:40:27.947Z,6.85
2019-03-09T05:41:27.060Z,6.93
2019-03-09T05:42:27.035Z,6.87
2019-03-09T05:43:27.038Z,6.92
2019-03-09T05:44:27.197Z,6.90
2019-03-09T05:45:27.027Z,6.90
2019-03-09T05:46:27.019Z,6.86
2019-03-09T05:47:27.072Z,6.87
2019-03-09T05:48:27.941Z,6.82
2019-03-09T05:49:27.045Z,6.90
2019-03-09T05:50:32.701Z,6.87
2019-03-09T05:51:28.534Z,6.86
2019-03-09T05:52:27.014Z,6.97
2019-03-09T05:53:27.182Z,6.93
2019-03-09T05:54:27.237Z,6.86
2019-03-09T05:55:27.020Z,6.85
2019-03-09T05:56:27.197Z,6.96
2019-03-09T05:57:27.109Z,6.90
2019-03-09T05:58:27.104Z,6.93
2019-03-09T05:59:27.015Z,6.92
2019-03-09T06:00:26.893Z,6.93
2019-03-09T06:01:26.881Z,6.92
2019-03-09T06:02:26.862Z,6.95
2019-03-09T06:03:27.014Z,6.90
2019-03-09T06:04:26.848Z,6.83
2019-03-09T06:05:26.969Z,6.77
2019-03-09T06:06:27.120Z,6.83
2019-03-09T06:07:26.782Z,6.86
2019-03-09T06:08:26.805Z,6.85
2019-03-09T06:09:26.875Z,6.86
2019-03-09T06:10:26.850Z,6.75
2019-03-09T06:11:26.804Z,6.85
2019-03-09T06:12:26.766Z,6.78
2019-03-09T06:13:26.754Z,6.78
2019-03-09T06:14:28.320Z,6.90
2019-03-09T06:15:26.827Z,6.77
2019-03-09T06:16:26.720Z,6.77
2019-03-09T06:17:26.725Z,6.80
2019-03-09T06:18:26.682Z,6.74
2019-03-09T06:19:26.733Z,6.74
2019-03-09T06:20:26.724Z,6.77
2019-03-09T06:21:26.809Z,6.75
2019-03-09T06:22:27.446Z,6.68
2019-03-09T06:23:26.872Z,6.77
2019-03-09T06:24:26.683Z,6.71
2019-03-09T06:25:26.816Z,6.72
2019-03-09T06:26:26.839Z,6.65
2019-03-09T06:27:26.711Z,6.64
2019-03-09T06:28:27.707Z,6.67
2019-03-09T06:29:27.117Z,6.64
2019-03-09T06:30:26.604Z,6.67
2019-03-09T06:31:27.449Z,6.65
2019-03-09T06:32:29.035Z,6.60
2019-03-09T06:33:28.061Z,6.62
2019-03-09T06:34:28.422Z,6.54
2019-03-09T06:35:29.095Z,6.57
2019-03-09T06:36:29.977Z,6.57
2019-03-09T06:37:28.369Z,6.59
2019-03-09T06:38:29.334Z,6.54
2019-03-09T06:39:30.414Z,6.60
2019-03-09T06:40:26.670Z,6.60
2019-03-09T06:41:26.530Z,6.60
2019-03-09T06:42:26.610Z,6.56
2019-03-09T06:43:26.631Z,6.60
2019-03-09T06:44:26.496Z,6.56
2019-03-09T06:45:26.913Z,6.62
2019-03-09T06:46:26.411Z,6.59
2019-03-09T06:47:27.461Z,6.54
2019-03-09T06:48:32.728Z,6.52
2019-03-09T06:49:30.852Z,6.46
2019-03-09T06:50:28.498Z,6.38
2019-03-09T06:51:29.784Z,6.50
2019-03-09T06:52:30.639Z,6.53
2019-03-09T06:53:27.855Z,6.54
2019-03-09T06:54:29.838Z,6.60
2019-03-09T06:55:27.912Z,6.56
2019-03-09T06:56:26.481Z,6.59
2019-03-09T06:57:26.350Z,6.60
2019-03-09T06:58:26.433Z,6.57
2019-03-09T06:59:26.463Z,6.57
2019-03-09T07:00:30.112Z,6.57
2019-03-09T07:01:27.095Z,6.64
2019-03-09T07:02:26.236Z,6.54
2019-03-09T07:03:26.235Z,6.54
2019-03-09T07:04:26.277Z,6.62
2019-03-09T07:05:26.212Z,6.53
2019-03-09T07:06:27.037Z,6.60
2019-03-09T07:07:26.437Z,6.52
2019-03-09T07:08:26.184Z,6.54
2019-03-09T07:09:26.170Z,6.57
2019-03-09T07:10:26.172Z,6.54
2019-03-09T07:11:26.131Z,6.59
2019-03-09T07:12:26.170Z,6.60
2019-03-09T07:13:26.148Z,6.57
2019-03-09T07:14:26.143Z,6.64
2019-03-09T07:15:26.087Z,6.75
2019-03-09T07:16:26.087Z,6.72
2019-03-09T07:17:26.102Z,6.85
2019-03-09T07:18:26.164Z,6.78
2019-03-09T07:19:26.081Z,6.87
2019-03-09T07:20:26.026Z,6.85
2019-03-09T07:21:26.025Z,6.89
2019-03-09T07:22:26.034Z,6.75
2019-03-09T07:23:26.114Z,6.90
2019-03-09T07:24:26.015Z,6.92
2019-03-09T07:25:26.454Z,6.90
2019-03-09T07:26:25.981Z,6.89
2019-03-09T07:27:25.968Z,6.85
2019-03-09T07:28:25.971Z,6.92
2019-03-09T07:29:26.053Z,6.92
2019-03-09T07:30:25.935Z,6.90
2019-03-09T07:31:25.940Z,6.90
2019-03-09T07:32:25.942Z,6.93
2019-03-09T07:33:26.962Z,6.87
2019-03-09T07:34:25.912Z,6.93
2019-03-09T07:35:25.976Z,6.90
2019-03-09T07:36:25.868Z,7.07
2019-03-09T07:37:25.889Z,7.04
2019-03-09T07:38:25.867Z,7.04
2019-03-09T07:39:25.993Z,7.04
2019-03-09T07:40:26.960Z,7.15
2019-03-09T07:41:25.929Z,7.14
2019-03-09T07:42:25.895Z,7.15
2019-03-09T07:43:25.891Z,7.18
2019-03-09T07:44:26.457Z,7.15
2019-03-09T07:45:25.775Z,7.13
2019-03-09T07:46:25.778Z,7.23
2019-03-09T07:47:25.770Z,7.19
2019-03-09T07:48:25.803Z,7.18
2019-03-09T07:49:25.840Z,7.18
2019-03-09T07:50:25.927Z,7.13
2019-03-09T07:51:25.721Z,7.21
2019-03-09T07:52:26.497Z,7.23
2019-03-09T07:53:25.713Z,7.18
2019-03-09T07:54:25.749Z,7.18
2019-03-09T07:55:25.758Z,7.15
2019-03-09T07:56:25.672Z,7.23
2019-03-09T07:57:25.657Z,7.29
2019-03-09T07:58:25.684Z,7.28
2019-03-09T07:59:25.641Z,7.29
2019-03-09T08:00:25.615Z,7.36
2019-03-09T08:01:25.704Z,7.31
2019-03-09T08:02:25.634Z,7.39
2019-03-09T08:03:25.635Z,7.36
2019-03-09T08:04:25.638Z,7.44
2019-03-09T08:05:25.661Z,7.48
2019-03-09T08:06:25.597Z,7.51
2019-03-09T08:07:25.554Z,7.46
2019-03-09T08:08:25.540Z,7.53
2019-03-09T08:09:25.547Z,7.58
2019-03-09T08:10:25.503Z,7.64
2019-03-09T08:11:25.529Z,7.59
2019-03-09T08:12:25.535Z,7.62
2019-03-09T08:13:25.483Z,7.70
2019-03-09T08:14:25.526Z,7.74
2019-03-09T08:15:25.498Z,7.83
2019-03-09T08:16:35.107Z,7.74
2019-03-09T08:17:26.544Z,7.83
2019-03-09T08:18:25.463Z,7.85
2019-03-09T08:19:25.426Z,7.90
2019-03-09T08:20:25.433Z,7.93
2019-03-09T08:21:25.396Z,8.08
2019-03-09T08:22:25.407Z,8.17
2019-03-09T08:23:25.380Z,8.27
2019-03-09T08:24:26.022Z,8.27
2019-03-09T08:25:25.449Z,8.27
2019-03-09T08:26:25.349Z,8.26
2019-03-09T08:27:25.356Z,8.38
2019-03-09T08:28:25.388Z,8.52
2019-03-09T08:29:25.351Z,8.45
2019-03-09T08:30:25.313Z,8.56
2019-03-09T08:31:25.304Z,8.57
2019-03-09T08:32:25.363Z,8.50
2019-03-09T08:33:25.301Z,8.61
2019-03-09T08:34:25.298Z,8.66
2019-03-09T08:35:25.319Z,8.77
2019-03-09T08:36:25.252Z,8.81
2019-03-09T08:37:25.462Z,8.84
2019-03-09T08:38:25.264Z,8.90
2019-03-09T08:39:25.231Z,8.92
2019-03-09T08:40:25.221Z,9.09
2019-03-09T08:41:25.265Z,9.05
2019-03-09T08:42:25.176Z,9.13
2019-03-09T08:43:25.200Z,9.03
2019-03-09T08:44:25.165Z,8.90
2019-03-09T08:45:25.165Z,8.99
2019-03-09T08:46:25.152Z,8.89
2019-03-09T08:47:25.130Z,8.92
2019-03-09T08:48:25.158Z,8.77
2019-03-09T08:49:25.133Z,8.74
2019-03-09T08:50:25.113Z,8.64
2019-03-09T08:51:25.120Z,8.66
2019-03-09T08:52:25.085Z,8.71
2019-03-09T08:53:25.138Z,8.84
2019-03-09T08:54:25.138Z,8.95
2019-03-09T08:55:25.168Z,9.05
2019-03-09T08:56:25.063Z,9.21
2019-03-09T08:57:25.500Z,9.47
2019-03-09T08:58:25.126Z,9.51
2019-03-09T08:59:25.987Z,9.66
2019-03-09T09:00:25.101Z,9.58
2019-03-09T09:01:25.019Z,9.72
2019-03-09T09:02:25.473Z,9.63
2019-03-09T09:03:24.962Z,9.69
2019-03-09T09:04:25.972Z,9.73
2019-03-09T09:05:25.079Z,9.80
2019-03-09T09:06:24.969Z,9.88
2019-03-09T09:07:25.033Z,9.92
2019-03-09T09:08:24.967Z,10.03
2019-03-09T09:09:24.938Z,10.07
2019-03-09T09:10:24.947Z,10.03
2019-03-09T09:11:25.586Z,10.03
2019-03-09T09:12:24.878Z,10.09
2019-03-09T09:13:24.995Z,10.18
2019-03-09T09:14:24.962Z,10.30
2019-03-09T09:15:24.867Z,10.30
2019-03-09T09:16:24.890Z,10.58
2019-03-09T09:17:25.812Z,10.79
2019-03-09T09:18:27.555Z,10.94
2019-03-09T09:19:25.573Z,10.95
2019-03-09T09:20:24.868Z,10.84
2019-03-09T09:21:26.156Z,10.79
2019-03-09T09:22:24.815Z,10.67
2019-03-09T09:23:24.809Z,10.77
2019-03-09T09:24:24.865Z,10.75
2019-03-09T09:25:25.477Z,10.77
2019-03-09T09:26:24.768Z,10.59
2019-03-09T09:27:24.706Z,10.55
2019-03-09T09:28:24.673Z,10.65
2019-03-09T09:29:24.708Z,10.59
2019-03-09T09:30:24.647Z,10.55
2019-03-09T09:31:24.762Z,10.59
2019-03-09T09:32:25.699Z,10.67
2019-03-09T09:33:24.686Z,10.64
2019-03-09T09:34:25.505Z,10.62
2019-03-09T09:35:24.624Z,10.65
2019-03-09T09:36:24.610Z,10.68
2019-03-09T09:37:24.636Z,10.61
2019-03-09T09:38:24.662Z,10.86
2019-03-09T09:39:24.600Z,10.92
2019-03-09T09:40:24.571Z,10.83
2019-03-09T09:41:24.577Z,10.84
2019-03-09T09:42:24.582Z,10.82
2019-03-09T09:43:24.552Z,10.76
2019-03-09T09:44:24.536Z,10.77
2019-03-09T09:45:24.541Z,10.61
2019-03-09T09:46:24.984Z,10.65
2019-03-09T09:47:25.077Z,10.90
2019-03-09T09:48:24.530Z,10.92
2019-03-09T09:49:24.495Z,10.84
2019-03-09T09:50:24.477Z,11.12
2019-03-09T09:51:24.519Z,11.08
2019-03-09T09:52:24.428Z,11.26
2019-03-09T09:53:24.442Z,11.04
2019-03-09T09:54:24.575Z,10.95
2019-03-09T09:55:24.464Z,11.13
2019-03-09T09:56:24.592Z,11.02
2019-03-09T09:57:24.400Z,10.87
2019-03-09T09:58:24.360Z,10.72
2019-03-09T09:59:24.363Z,10.69
2019-03-09T10:00:24.324Z,10.59
2019-03-09T10:01:24.342Z,10.72
2019-03-09T10:02:24.361Z,10.69
2019-03-09T10:03:24.341Z,10.75
2019-03-09T10:04:24.333Z,10.80
2019-03-09T10:05:24.273Z,10.84
2019-03-09T10:06:24.288Z,10.95
2019-03-09T10:07:24.275Z,10.80
2019-03-09T10:08:24.296Z,10.83
2019-03-09T10:09:24.249Z,10.97
2019-03-09T10:10:24.268Z,11.04
2019-03-09T10:11:24.246Z,11.10
2019-03-09T10:12:24.265Z,11.20
2019-03-09T10:13:24.221Z,11.25
2019-03-09T10:14:24.194Z,11.55
2019-03-09T10:15:24.212Z,11.34
2019-03-09T10:16:34.433Z,11.45
2019-03-09T10:17:24.198Z,11.48
2019-03-09T10:18:25.506Z,11.33
2019-03-09T10:19:24.988Z,11.23
2019-03-09T10:20:25.507Z,11.18
2019-03-09T10:21:24.265Z,11.10
2019-03-09T10:22:25.104Z,10.92
2019-03-09T10:23:26.243Z,10.89
2019-03-09T10:24:24.095Z,10.86
2019-03-09T10:25:24.096Z,10.71
2019-03-09T10:26:26.553Z,10.77
2019-03-09T10:27:24.123Z,10.94
2019-03-09T10:28:24.080Z,10.83
2019-03-09T10:29:24.064Z,10.87
2019-03-09T10:30:24.129Z,11.12
2019-03-09T10:31:24.042Z,11.23
2019-03-09T10:32:24.026Z,11.16
2019-03-09T10:33:24.468Z,11.16
2019-03-09T10:34:24.303Z,11.05
2019-03-09T10:35:24.031Z,11.25
2019-03-09T10:36:23.979Z,11.35
2019-03-09T10:37:25.606Z,11.30
2019-03-09T10:38:23.983Z,11.30
2019-03-09T10:39:23.951Z,11.25
2019-03-09T10:40:23.909Z,11.15
2019-03-09T10:41:23.974Z,11.12
2019-03-09T10:42:23.956Z,10.98
2019-03-09T10:43:23.932Z,10.97
2019-03-09T10:44:23.904Z,11.00
2019-03-09T10:45:23.908Z,10.95
2019-03-09T10:46:23.939Z,11.08
2019-03-09T10:47:23.843Z,10.95
2019-03-09T10:48:33.136Z,10.90
2019-03-09T10:49:23.910Z,11.01
2019-03-09T10:50:25.900Z,10.94
2019-03-09T10:51:23.797Z,10.92
2019-03-09T10:52:23.805Z,10.84
2019-03-09T10:53:23.778Z,10.86
2019-03-09T10:54:23.772Z,10.79
2019-03-09T10:55:23.768Z,10.79
2019-03-09T10:56:23.745Z,10.72
2019-03-09T10:57:23.791Z,10.72
2019-03-09T10:58:23.813Z,10.87
2019-03-09T10:59:28.029Z,10.80
2019-03-09T11:00:23.756Z,10.72
2019-03-09T11:01:23.738Z,10.77
2019-03-09T11:02:23.673Z,10.84
2019-03-09T11:03:25.022Z,10.84
2019-03-09T11:04:27.681Z,10.76
2019-03-09T11:05:23.705Z,10.76
2019-03-09T11:06:23.663Z,10.77
2019-03-09T11:07:23.624Z,10.76
2019-03-09T11:08:23.650Z,10.64
2019-03-09T11:09:23.617Z,10.65
2019-03-09T11:10:23.596Z,10.65
2019-03-09T11:11:23.602Z,10.76
2019-03-09T11:12:23.702Z,10.80
2019-03-09T11:13:23.637Z,10.89
2019-03-09T11:14:23.570Z,10.86
2019-03-09T11:15:23.618Z,10.97
2019-03-09T11:16:24.203Z,11.04
2019-03-09T11:17:23.550Z,11.22
2019-03-09T11:18:23.515Z,11.26
2019-03-09T11:19:23.528Z,11.45
2019-03-09T11:20:23.521Z,11.44
2019-03-09T11:21:23.657Z,11.49
2019-03-09T11:22:23.492Z,11.51
2019-03-09T11:23:23.614Z,11.49
2019-03-09T11:24:24.106Z,11.62
2019-03-09T11:25:23.438Z,11.59
2019-03-09T11:26:23.599Z,11.71
2019-03-09T11:27:23.451Z,11.73
2019-03-09T11:28:23.486Z,11.65
2019-03-09T11:29:23.406Z,11.70
2019-03-09T11:30:23.413Z,11.59
2019-03-09T11:31:23.394Z,11.59
2019-03-09T11:32:23.398Z,11.59
2019-03-09T11:33:23.415Z,11.70
2019-03-09T11:34:23.550Z,11.59
2019-03-09T11:35:23.349Z,11.55
2019-03-09T11:36:23.320Z,11.77
2019-03-09T11:37:23.314Z,11.88
2019-03-09T11:38:23.368Z,12.08
2019-03-09T11:39:23.287Z,12.32
2019-03-09T11:40:23.293Z,12.36
2019-03-09T11:41:23.287Z,12.20
2019-03-09T11:42:23.325Z,12.11
2019-03-09T11:43:23.283Z,11.96
2019-03-09T11:44:23.270Z,11.93
2019-03-09T11:45:23.357Z,12.00
2019-03-09T11:46:23.216Z,12.03
2019-03-09T11:47:23.240Z,12.05
2019-03-09T11:48:23.229Z,12.00
2019-03-09T11:49:23.191Z,12.00
2019-03-09T11:50:23.218Z,11.88
2019-03-09T11:51:23.187Z,11.81
2019-03-09T11:52:23.193Z,11.78
2019-03-09T11:53:23.211Z,11.67
2019-03-09T11:54:23.126Z,11.73
2019-03-09T11:55:23.114Z,11.73
2019-03-09T11:56:31.708Z,11.65
2019-03-09T11:57:23.113Z,11.96
2019-03-09T11:58:32.215Z,11.96
2019-03-09T11:59:23.061Z,11.99
2019-03-09T12:00:23.057Z,11.81
2019-03-09T12:01:31.724Z,11.68
2019-03-09T12:02:38.796Z,11.60
2019-03-09T12:04:46.079Z,11.53
2019-03-09T12:06:46.496Z,11.44
2019-03-09T12:07:55.697Z,11.38
2019-03-09T12:08:56.667Z,11.48
2019-03-09T12:09:55.778Z,11.48
2019-03-09T12:10:55.860Z,11.43
2019-03-09T12:11:54.839Z,11.45
2019-03-09T12:14:16.738Z,11.48
2019-03-09T12:15:16.474Z,11.43
2019-03-09T12:16:16.430Z,11.41
2019-03-09T12:17:16.298Z,11.40
2019-03-09T12:18:17.295Z,11.48
2019-03-09T12:19:16.369Z,11.52
2019-03-09T12:20:17.121Z,11.62
2019-03-09T12:21:17.001Z,11.73
2019-03-09T12:22:16.358Z,11.76
2019-03-09T12:23:16.208Z,11.96
2019-03-09T12:24:19.750Z,12.07
2019-03-09T12:25:16.355Z,12.17
2019-03-09T12:26:16.998Z,12.36
2019-03-09T12:27:16.133Z,12.36
2019-03-09T12:28:17.085Z,12.30
2019-03-09T12:29:16.167Z,12.25
2019-03-09T12:30:16.261Z,12.35
2019-03-09T12:31:16.138Z,12.35
2019-03-09T12:32:16.116Z,12.39
2019-03-09T12:33:16.125Z,12.40
2019-03-09T12:34:16.998Z,12.47
2019-03-09T12:35:17.012Z,12.47
2019-03-09T12:36:16.178Z,12.50
2019-03-09T12:37:16.068Z,12.33
2019-03-09T12:38:16.061Z,12.37
2019-03-09T12:39:16.173Z,12.39
2019-03-09T12:40:16.031Z,12.29
2019-03-09T12:41:16.124Z,12.32
2019-03-09T12:42:16.055Z,12.48
2019-03-09T12:43:16.043Z,12.39
2019-03-09T12:44:16.031Z,12.45
2019-03-09T12:45:16.100Z,12.78
2019-03-09T12:46:16.100Z,12.87
2019-03-09T12:47:15.988Z,12.94
2019-03-09T12:48:16.637Z,13.08
2019-03-09T12:49:16.017Z,13.16
2019-03-09T12:50:15.946Z,13.33
2019-03-09T12:51:16.526Z,13.30
2019-03-09T12:52:15.990Z,13.17
2019-03-09T12:53:15.975Z,13.06
2019-03-09T12:54:15.861Z,13.80
2019-03-09T12:55:15.924Z,13.86
2019-03-09T12:56:15.854Z,13.95
2019-03-09T12:57:15.832Z,13.45
2019-03-09T12:58:15.911Z,13.24
2019-03-09T12:59:15.889Z,13.19
2019-03-09T13:00:15.894Z,13.03
2019-03-09T13:01:15.881Z,12.86
2019-03-09T13:02:15.793Z,12.80
2019-03-09T13:03:15.933Z,12.61
2019-03-09T13:04:16.654Z,12.44
2019-03-09T13:05:15.775Z,12.40
2019-03-09T13:06:15.844Z,12.48
2019-03-09T13:07:16.507Z,12.53
2019-03-09T13:08:15.720Z,12.75
2019-03-09T13:09:15.945Z,13.08
2019-03-09T13:10:15.842Z,13.13
2019-03-09T13:11:16.614Z,13.21
2019-03-09T13:12:15.658Z,13.16
2019-03-09T13:13:15.654Z,13.19
2019-03-09T13:14:16.604Z,13.05